sensor_id;sensor_type;location;lat;lon;timestamp;pressure;altitude;pressure_sealevel;temperature;humidity
54556;BME280;57291;37.520;15.106;2022-12-18T00:01:16;101945.75;;;13.68;84.08
54556;BME280;57291;37.520;15.106;2022-12-18T00:03:44;101951.75;;;13.70;83.45
54556;BME280;57291;37.520;15.106;2022-12-18T00:06:14;101958.25;;;13.74;82.68
54556;BME280;57291;37.520;15.106;2022-12-18T00:08:42;101962.09;;;13.73;82.27
54556;BME280;57291;37.520;15.106;2022-12-18T00:11:15;101961.28;;;13.73;81.66
54556;BME280;57291;37.520;15.106;2022-12-18T00:13:43;101967.28;;;13.75;81.19
54556;BME280;57291;37.520;15.106;2022-12-18T00:16:12;101963.72;;;13.74;81.27
54556;BME280;57291;37.520;15.106;2022-12-18T00:18:41;101970.00;;;13.75;81.25
54556;BME280;57291;37.520;15.106;2022-12-18T00:21:10;101970.81;;;13.75;81.49
54556;BME280;57291;37.520;15.106;2022-12-18T00:23:39;101975.69;;;13.78;81.20
54556;BME280;57291;37.520;15.106;2022-12-18T00:26:12;101975.69;;;13.78;81.15
54556;BME280;57291;37.520;15.106;2022-12-18T00:28:43;101972.41;;;13.81;81.15
54556;BME280;57291;37.520;15.106;2022-12-18T00:31:14;101983.88;;;13.83;81.11
54556;BME280;57291;37.520;15.106;2022-12-18T00:33:42;101975.97;;;13.82;81.13
54556;BME280;57291;37.520;15.106;2022-12-18T00:36:12;101987.72;;;13.82;81.23
54556;BME280;57291;37.520;15.106;2022-12-18T00:38:40;101981.72;;;13.80;81.46
54556;BME280;57291;37.520;15.106;2022-12-18T00:41:09;101993.44;;;13.81;81.25
54556;BME280;57291;37.520;15.106;2022-12-18T00:43:38;101994.81;;;13.83;81.24
54556;BME280;57291;37.520;15.106;2022-12-18T00:46:06;101996.44;;;13.84;81.29
54556;BME280;57291;37.520;15.106;2022-12-18T00:48:33;101996.44;;;13.84;81.01
54556;BME280;57291;37.520;15.106;2022-12-18T00:51:00;101993.69;;;13.84;81.29
54556;BME280;57291;37.520;15.106;2022-12-18T00:53:27;101997.78;;;13.87;81.11
54556;BME280;57291;37.520;15.106;2022-12-18T00:55:55;101991.50;;;13.87;80.71
54556;BME280;57291;37.520;15.106;2022-12-18T00:58:22;101983.06;;;13.83;80.76
54556;BME280;57291;37.520;15.106;2022-12-18T01:00:49;101989.63;;;13.82;80.81
54556;BME280;57291;37.520;15.106;2022-12-18T01:03:16;102005.50;;;13.80;80.86
54556;BME280;57291;37.520;15.106;2022-12-18T01:05:43;101998.09;;;13.80;80.79
54556;BME280;57291;37.520;15.106;2022-12-18T01:08:10;102000.25;;;13.83;80.50
54556;BME280;57291;37.520;15.106;2022-12-18T01:10:40;102005.44;;;13.85;80.09
54556;BME280;57291;37.520;15.106;2022-12-18T01:13:08;102005.19;;;13.81;79.93
54556;BME280;57291;37.520;15.106;2022-12-18T01:15:35;102013.38;;;13.81;80.00
54556;BME280;57291;37.520;15.106;2022-12-18T01:18:02;102009.03;;;13.80;79.95
54556;BME280;57291;37.520;15.106;2022-12-18T01:20:30;102011.78;;;13.80;79.82
54556;BME280;57291;37.520;15.106;2022-12-18T01:22:57;102010.72;;;13.76;79.74
54556;BME280;57291;37.520;15.106;2022-12-18T01:25:26;102018.38;;;13.74;79.89
54556;BME280;57291;37.520;15.106;2022-12-18T01:27:53;102022.78;;;13.70;79.85
54556;BME280;57291;37.520;15.106;2022-12-18T01:30:20;102028.81;;;13.67;80.23
54556;BME280;57291;37.520;15.106;2022-12-18T01:32:47;102029.38;;;13.64;80.50
54556;BME280;57291;37.520;15.106;2022-12-18T01:35:14;102022.03;;;13.59;80.36
54556;BME280;57291;37.520;15.106;2022-12-18T01:37:41;102023.41;;;13.57;80.81
54556;BME280;57291;37.520;15.106;2022-12-18T01:40:09;102023.97;;;13.54;80.77
54556;BME280;57291;37.520;15.106;2022-12-18T01:42:36;102024.56;;;13.51;80.62
54556;BME280;57291;37.520;15.106;2022-12-18T01:47:52;102020.22;;;13.45;80.87
54556;BME280;57291;37.520;15.106;2022-12-18T01:50:40;102016.44;;;13.41;80.65
54556;BME280;57291;37.520;15.106;2022-12-18T01:53:22;102021.34;;;13.38;80.30
54556;BME280;57291;37.520;15.106;2022-12-18T01:55:53;102016.44;;;13.35;80.13
54556;BME280;57291;37.520;15.106;2022-12-18T01:59:08;102011.28;;;13.34;80.05
54556;BME280;57291;37.520;15.106;2022-12-18T02:01:16;102019.72;;;13.32;80.07
54556;BME280;57291;37.520;15.106;2022-12-18T02:03:44;102017.56;;;13.34;79.88
54556;BME280;57291;37.520;15.106;2022-12-18T02:11:50;102027.97;;;13.27;79.57
54556;BME280;57291;37.520;15.106;2022-12-18T02:14:36;102032.63;;;13.27;79.22
54556;BME280;57291;37.520;15.106;2022-12-18T02:17:11;102040.53;;;13.23;78.89
54556;BME280;57291;37.520;15.106;2022-12-18T02:27:29;102044.38;;;13.17;78.20
54556;BME280;57291;37.520;15.106;2022-12-18T02:29:59;102044.38;;;13.12;78.20
54556;BME280;57291;37.520;15.106;2022-12-18T02:32:32;102046.59;;;13.10;78.44
54556;BME280;57291;37.520;15.106;2022-12-18T02:35:02;102049.34;;;13.10;78.62
54556;BME280;57291;37.520;15.106;2022-12-18T02:37:32;102049.06;;;13.06;78.28
54556;BME280;57291;37.520;15.106;2022-12-18T02:40:03;102058.63;;;12.99;78.65
54556;BME280;57291;37.520;15.106;2022-12-18T02:42:34;102059.75;;;12.93;78.78
54556;BME280;57291;37.520;15.106;2022-12-18T02:45:03;102055.94;;;12.94;79.01
54556;BME280;57291;37.520;15.106;2022-12-18T02:47:37;102050.19;;;12.95;79.02
54556;BME280;57291;37.520;15.106;2022-12-18T02:50:26;102053.22;;;12.94;79.02
54556;BME280;57291;37.520;15.106;2022-12-18T02:53:36;102045.59;;;12.90;79.44
54556;BME280;57291;37.520;15.106;2022-12-18T02:56:17;102051.59;;;12.87;79.50
54556;BME280;57291;37.520;15.106;2022-12-18T02:58:58;102047.50;;;12.85;79.87
54556;BME280;57291;37.520;15.106;2022-12-18T03:01:56;102056.50;;;12.85;80.06
54556;BME280;57291;37.520;15.106;2022-12-18T03:04:30;102061.41;;;12.88;79.97
54556;BME280;57291;37.520;15.106;2022-12-18T03:07:07;102062.25;;;12.84;79.87
54556;BME280;57291;37.520;15.106;2022-12-18T03:09:39;102056.25;;;12.82;80.17
54556;BME280;57291;37.520;15.106;2022-12-18T03:15:04;102069.63;;;12.78;80.35
54556;BME280;57291;37.520;15.106;2022-12-18T03:17:40;102077.25;;;12.76;80.65
54556;BME280;57291;37.520;15.106;2022-12-18T03:20:13;102069.63;;;12.73;80.74
54556;BME280;57291;37.520;15.106;2022-12-18T03:22:42;102070.47;;;12.74;80.92
54556;BME280;57291;37.520;15.106;2022-12-18T03:25:15;102066.63;;;12.75;80.94
54556;BME280;57291;37.520;15.106;2022-12-18T03:27:49;102064.47;;;12.72;81.07
54556;BME280;57291;37.520;15.106;2022-12-18T03:30:19;102065.81;;;12.69;81.29
54556;BME280;57291;37.520;15.106;2022-12-18T03:32:56;102069.66;;;12.68;81.39
54556;BME280;57291;37.520;15.106;2022-12-18T03:35:31;102060.94;;;12.66;81.41
54556;BME280;57291;37.520;15.106;2022-12-18T03:38:00;102069.91;;;12.66;81.64
54556;BME280;57291;37.520;15.106;2022-12-18T03:41:09;102068.28;;;12.65;81.62
54556;BME280;57291;37.520;15.106;2022-12-18T03:44:11;102072.38;;;12.68;81.70
54556;BME280;57291;37.520;15.106;2022-12-18T03:49:27;102079.75;;;12.62;81.74
54556;BME280;57291;37.520;15.106;2022-12-18T03:52:05;102085.75;;;12.59;81.62
54556;BME280;57291;37.520;15.106;2022-12-18T03:54:36;102087.41;;;12.55;81.90
54556;BME280;57291;37.520;15.106;2022-12-18T03:57:15;102088.78;;;12.48;82.04
54556;BME280;57291;37.520;15.106;2022-12-18T03:59:44;102087.13;;;12.47;82.38
54556;BME280;57291;37.520;15.106;2022-12-18T04:02:17;102089.88;;;12.47;82.59
54556;BME280;57291;37.520;15.106;2022-12-18T04:04:46;102087.97;;;12.47;82.52
54556;BME280;57291;37.520;15.106;2022-12-18T04:07:16;102086.06;;;12.48;82.56
54556;BME280;57291;37.520;15.106;2022-12-18T04:09:45;102087.97;;;12.47;83.11
54556;BME280;57291;37.520;15.106;2022-12-18T04:12:14;102094.50;;;12.51;83.29
54556;BME280;57291;37.520;15.106;2022-12-18T04:14:41;102094.50;;;12.51;83.05
54556;BME280;57291;37.520;15.106;2022-12-18T04:17:09;102096.69;;;12.49;82.93
54556;BME280;57291;37.520;15.106;2022-12-18T04:19:36;102092.03;;;12.50;83.21
54556;BME280;57291;37.520;15.106;2022-12-18T04:22:03;102102.69;;;12.46;83.30
54556;BME280;57291;37.520;15.106;2022-12-18T04:24:38;102093.97;;;12.44;83.61
54556;BME280;57291;37.520;15.106;2022-12-18T04:27:15;102097.53;;;12.44;83.49
54556;BME280;57291;37.520;15.106;2022-12-18T04:29:47;102101.06;;;12.45;83.35
54556;BME280;57291;37.520;15.106;2022-12-18T04:32:17;102100.78;;;12.41;83.38
54556;BME280;57291;37.520;15.106;2022-12-18T04:34:44;102101.91;;;12.40;83.50
54556;BME280;57291;37.520;15.106;2022-12-18T04:37:11;102105.44;;;12.41;83.55
54556;BME280;57291;37.520;15.106;2022-12-18T04:39:38;102099.72;;;12.37;83.50
54556;BME280;57291;37.520;15.106;2022-12-18T04:42:13;102097.81;;;12.38;83.94
54556;BME280;57291;37.520;15.106;2022-12-18T04:44:40;102097.25;;;12.36;84.08
54556;BME280;57291;37.520;15.106;2022-12-18T04:47:07;102109.78;;;12.37;84.44
54556;BME280;57291;37.520;15.106;2022-12-18T04:49:34;102110.88;;;12.36;84.50
54556;BME280;57291;37.520;15.106;2022-12-18T04:52:01;102116.06;;;12.32;84.28
54556;BME280;57291;37.520;15.106;2022-12-18T04:54:28;102108.72;;;12.28;84.52
54556;BME280;57291;37.520;15.106;2022-12-18T04:56:55;102117.44;;;12.25;84.83
54556;BME280;57291;37.520;15.106;2022-12-18T04:59:22;102125.34;;;12.21;84.62
54556;BME280;57291;37.520;15.106;2022-12-18T05:01:50;102129.66;;;12.17;84.66
54556;BME280;57291;37.520;15.106;2022-12-18T05:04:17;102131.84;;;12.20;85.15
54556;BME280;57291;37.520;15.106;2022-12-18T05:06:45;102124.78;;;12.24;85.12
54556;BME280;57291;37.520;15.106;2022-12-18T05:09:12;102132.41;;;12.27;85.58
54556;BME280;57291;37.520;15.106;2022-12-18T05:11:39;102125.31;;;12.26;85.41
54556;BME280;57291;37.520;15.106;2022-12-18T05:14:06;102138.69;;;12.23;85.28
54556;BME280;57291;37.520;15.106;2022-12-18T05:16:34;102135.41;;;12.15;85.11
54556;BME280;57291;37.520;15.106;2022-12-18T05:19:00;102129.94;;;12.10;85.16
54556;BME280;57291;37.520;15.106;2022-12-18T05:21:28;102141.13;;;12.09;85.72
54556;BME280;57291;37.520;15.106;2022-12-18T05:23:55;102142.75;;;12.05;85.64
54556;BME280;57291;37.520;15.106;2022-12-18T05:26:22;102149.28;;;12.04;85.61
54556;BME280;57291;37.520;15.106;2022-12-18T05:28:49;102140.84;;;12.05;86.14
54556;BME280;57291;37.520;15.106;2022-12-18T05:31:16;102147.09;;;12.11;85.57
54556;BME280;57291;37.520;15.106;2022-12-18T05:33:43;102142.22;;;12.13;84.96
54556;BME280;57291;37.520;15.106;2022-12-18T05:36:11;102143.03;;;12.13;85.03
54556;BME280;57291;37.520;15.106;2022-12-18T05:38:39;102143.31;;;12.12;84.84
54556;BME280;57291;37.520;15.106;2022-12-18T05:41:07;102155.03;;;12.12;84.83
54556;BME280;57291;37.520;15.106;2022-12-18T05:43:36;102157.47;;;12.09;84.66
54556;BME280;57291;37.520;15.106;2022-12-18T05:46:11;102157.44;;;12.04;84.80
54556;BME280;57291;37.520;15.106;2022-12-18T05:48:41;102161.56;;;12.01;85.09
54556;BME280;57291;37.520;15.106;2022-12-18T05:51:11;102166.16;;;12.01;85.15
54556;BME280;57291;37.520;15.106;2022-12-18T05:53:39;102163.44;;;12.01;85.26
54556;BME280;57291;37.520;15.106;2022-12-18T05:56:09;102165.34;;;12.00;85.30
54556;BME280;57291;37.520;15.106;2022-12-18T05:58:36;102165.09;;;12.02;85.08
54556;BME280;57291;37.520;15.106;2022-12-18T06:01:15;102165.09;;;12.02;85.52
54556;BME280;57291;37.520;15.106;2022-12-18T06:03:43;102168.34;;;12.04;85.76
54556;BME280;57291;37.520;15.106;2022-12-18T06:06:21;102184.16;;;12.07;85.57
54556;BME280;57291;37.520;15.106;2022-12-18T06:08:49;102190.44;;;12.07;85.51
54556;BME280;57291;37.520;15.106;2022-12-18T06:11:20;102201.91;;;12.09;85.25
54556;BME280;57291;37.520;15.106;2022-12-18T06:13:52;102207.06;;;12.11;85.31
54556;BME280;57291;37.520;15.106;2022-12-18T06:16:24;102206.00;;;12.12;85.08
54556;BME280;57291;37.520;15.106;2022-12-18T06:18:52;102210.09;;;12.14;84.89
54556;BME280;57291;37.520;15.106;2022-12-18T06:21:19;102209.81;;;12.26;85.67
54556;BME280;57291;37.520;15.106;2022-12-18T06:23:46;102212.56;;;12.31;85.72
54556;BME280;57291;37.520;15.106;2022-12-18T06:26:14;102206.84;;;12.33;85.67
54556;BME280;57291;37.520;15.106;2022-12-18T06:28:41;102209.84;;;12.47;87.26
54556;BME280;57291;37.520;15.106;2022-12-18T06:31:09;102218.56;;;12.49;86.82
54556;BME280;57291;37.520;15.106;2022-12-18T06:33:37;102222.69;;;12.51;86.66
54556;BME280;57291;37.520;15.106;2022-12-18T06:36:10;102236.03;;;12.53;86.36
54556;BME280;57291;37.520;15.106;2022-12-18T06:38:40;102232.22;;;12.59;86.35
54556;BME280;57291;37.520;15.106;2022-12-18T06:41:17;102237.94;;;12.62;85.37
54556;BME280;57291;37.520;15.106;2022-12-18T06:43:44;102243.41;;;12.62;84.29
54556;BME280;57291;37.520;15.106;2022-12-18T06:46:12;102248.31;;;12.65;83.81
54556;BME280;57291;37.520;15.106;2022-12-18T06:48:40;102253.50;;;12.67;82.50
54556;BME280;57291;37.520;15.106;2022-12-18T06:51:07;102254.03;;;12.69;81.72
54556;BME280;57291;37.520;15.106;2022-12-18T06:53:34;102251.88;;;12.71;80.81
54556;BME280;57291;37.520;15.106;2022-12-18T06:56:03;102256.50;;;12.81;79.95
54556;BME280;57291;37.520;15.106;2022-12-18T06:58:37;102270.41;;;12.89;79.06
54556;BME280;57291;37.520;15.106;2022-12-18T07:01:05;102275.31;;;13.08;78.79
54556;BME280;57291;37.520;15.106;2022-12-18T07:03:33;102270.69;;;13.29;77.84
54556;BME280;57291;37.520;15.106;2022-12-18T07:06:01;102270.94;;;13.43;76.45
54556;BME280;57291;37.520;15.106;2022-12-18T07:08:29;102276.09;;;13.59;76.37
54556;BME280;57291;37.520;15.106;2022-12-18T07:10:56;102275.75;;;13.76;75.54
54556;BME280;57291;37.520;15.106;2022-12-18T07:13:24;102274.31;;;13.94;75.05
54556;BME280;57291;37.520;15.106;2022-12-18T07:15:51;102281.63;;;14.09;74.11
54556;BME280;57291;37.520;15.106;2022-12-18T07:18:18;102281.03;;;14.17;70.82
54556;BME280;57291;37.520;15.106;2022-12-18T07:20:45;102291.09;;;14.32;70.00
54556;BME280;57291;37.520;15.106;2022-12-18T07:23:13;102283.31;;;14.44;69.20
54556;BME280;57291;37.520;15.106;2022-12-18T07:25:40;102290.66;;;14.59;68.77
54556;BME280;57291;37.520;15.106;2022-12-18T07:28:07;102295.50;;;14.72;68.55
54556;BME280;57291;37.520;15.106;2022-12-18T07:30:42;102290.66;;;14.93;68.05
54556;BME280;57291;37.520;15.106;2022-12-18T07:33:09;102292.97;;;15.10;67.05
54556;BME280;57291;37.520;15.106;2022-12-18T07:35:36;102299.94;;;15.27;66.61
54556;BME280;57291;37.520;15.106;2022-12-18T07:38:03;102307.25;;;15.36;65.01
54556;BME280;57291;37.520;15.106;2022-12-18T07:40:31;102309.84;;;15.52;65.65
54556;BME280;57291;37.520;15.106;2022-12-18T07:42:58;102301.06;;;15.79;65.42
54556;BME280;57291;37.520;15.106;2022-12-18T07:45:25;102305.25;;;15.95;64.24
54556;BME280;57291;37.520;15.106;2022-12-18T07:47:52;102314.75;;;16.27;62.83
54556;BME280;57291;37.520;15.106;2022-12-18T07:50:19;102302.16;;;16.26;62.07
54556;BME280;57291;37.520;15.106;2022-12-18T07:52:46;102306.44;;;16.13;62.36
54556;BME280;57291;37.520;15.106;2022-12-18T07:55:13;102302.63;;;16.09;62.29
54556;BME280;57291;37.520;15.106;2022-12-18T07:57:40;102305.91;;;16.11;62.38
54556;BME280;57291;37.520;15.106;2022-12-18T08:00:17;102315.28;;;16.29;65.63
54556;BME280;57291;37.520;15.106;2022-12-18T08:02:44;102310.19;;;16.17;67.67
54556;BME280;57291;37.520;15.106;2022-12-18T08:05:11;102314.19;;;16.06;70.70
54556;BME280;57291;37.520;15.106;2022-12-18T08:07:39;102327.03;;;15.86;71.08
54556;BME280;57291;37.520;15.106;2022-12-18T08:10:06;102335.03;;;15.83;71.04
54556;BME280;57291;37.520;15.106;2022-12-18T08:12:33;102342.97;;;15.84;70.72
54556;BME280;57291;37.520;15.106;2022-12-18T08:15:01;102342.56;;;15.96;70.42
54556;BME280;57291;37.520;15.106;2022-12-18T08:17:28;102343.59;;;16.00;70.12
54556;BME280;57291;37.520;15.106;2022-12-18T08:19:55;102349.31;;;16.04;69.89
54556;BME280;57291;37.520;15.106;2022-12-18T08:22:22;102358.72;;;15.98;67.61
54556;BME280;57291;37.520;15.106;2022-12-18T08:24:50;102355.50;;;16.14;68.98
54556;BME280;57291;37.520;15.106;2022-12-18T08:27:17;102358.09;;;16.25;68.56
54556;BME280;57291;37.520;15.106;2022-12-18T08:29:56;102363.09;;;16.41;68.82
54556;BME280;57291;37.520;15.106;2022-12-18T08:32:24;102362.81;;;16.43;68.99
54556;BME280;57291;37.520;15.106;2022-12-18T08:34:52;102365.56;;;16.43;67.60
54556;BME280;57291;37.520;15.106;2022-12-18T08:37:19;102361.31;;;16.51;67.95
54556;BME280;57291;37.520;15.106;2022-12-18T08:39:46;102348.94;;;16.72;68.48
54556;BME280;57291;37.520;15.106;2022-12-18T08:42:13;102356.16;;;16.87;68.03
54556;BME280;57291;37.520;15.106;2022-12-18T08:45:01;102357.28;;;16.86;67.74
54556;BME280;57291;37.520;15.106;2022-12-18T08:47:28;102365.31;;;16.82;65.88
54556;BME280;57291;37.520;15.106;2022-12-18T08:49:55;102373.94;;;16.71;66.23
54556;BME280;57291;37.520;15.106;2022-12-18T08:52:22;102377.50;;;16.71;66.91
54556;BME280;57291;37.520;15.106;2022-12-18T08:54:49;102376.06;;;16.79;66.99
54556;BME280;57291;37.520;15.106;2022-12-18T08:57:16;102377.41;;;16.81;67.63
54556;BME280;57291;37.520;15.106;2022-12-18T08:59:43;102375.09;;;16.88;67.69
54556;BME280;57291;37.520;15.106;2022-12-18T09:02:11;102380.94;;;17.01;67.11
54556;BME280;57291;37.520;15.106;2022-12-18T09:04:40;102389.75;;;16.98;67.73
54556;BME280;57291;37.520;15.106;2022-12-18T09:07:08;102386.81;;;16.94;68.12
54556;BME280;57291;37.520;15.106;2022-12-18T09:09:36;102388.47;;;16.71;68.34
54556;BME280;57291;37.520;15.106;2022-12-18T09:12:04;102388.63;;;16.85;68.42
54556;BME280;57291;37.520;15.106;2022-12-18T09:14:31;102393.56;;;16.83;68.19
54556;BME280;57291;37.520;15.106;2022-12-18T09:16:58;102394.59;;;17.06;68.25
54556;BME280;57291;37.520;15.106;2022-12-18T09:19:25;102388.50;;;17.28;66.22
54556;BME280;57291;37.520;15.106;2022-12-18T09:21:52;102383.22;;;17.45;63.93
54556;BME280;57291;37.520;15.106;2022-12-18T09:24:22;102379.78;;;17.53;63.08
54556;BME280;57291;37.520;15.106;2022-12-18T09:26:53;102382.66;;;17.76;61.63
54556;BME280;57291;37.520;15.106;2022-12-18T09:29:23;102381.91;;;17.89;61.79
54556;BME280;57291;37.520;15.106;2022-12-18T09:31:50;102384.03;;;17.92;61.72
54556;BME280;57291;37.520;15.106;2022-12-18T09:34:17;102382.81;;;17.98;61.92
54556;BME280;57291;37.520;15.106;2022-12-18T09:36:45;102392.19;;;18.11;61.09
54556;BME280;57291;37.520;15.106;2022-12-18T09:39:14;102390.47;;;18.15;60.50
54556;BME280;57291;37.520;15.106;2022-12-18T09:42:02;102388.44;;;18.07;59.86
54556;BME280;57291;37.520;15.106;2022-12-18T09:44:33;102387.72;;;18.01;60.34
54556;BME280;57291;37.520;15.106;2022-12-18T09:47:22;102387.63;;;18.07;61.32
54556;BME280;57291;37.520;15.106;2022-12-18T09:49:53;102380.06;;;18.12;59.64
54556;BME280;57291;37.520;15.106;2022-12-18T09:52:39;102383.53;;;18.18;60.60
54556;BME280;57291;37.520;15.106;2022-12-18T09:55:32;102383.72;;;18.35;59.66
54556;BME280;57291;37.520;15.106;2022-12-18T10:00:36;102383.00;;;18.43;57.35
54556;BME280;57291;37.520;15.106;2022-12-18T10:03:10;102381.66;;;18.55;56.47
54556;BME280;57291;37.520;15.106;2022-12-18T10:11:03;102376.22;;;18.77;51.19
54556;BME280;57291;37.520;15.106;2022-12-18T10:13:53;102375.00;;;19.06;51.27
54556;BME280;57291;37.520;15.106;2022-12-18T10:19:24;102370.59;;;19.27;52.64
54556;BME280;57291;37.520;15.106;2022-12-18T10:27:17;102364.84;;;19.15;51.05
54556;BME280;57291;37.520;15.106;2022-12-18T10:29:45;102360.44;;;19.36;50.33
54556;BME280;57291;37.520;15.106;2022-12-18T10:32:19;102360.97;;;19.38;49.62
54556;BME280;57291;37.520;15.106;2022-12-18T10:34:48;102355.28;;;19.43;50.00
54556;BME280;57291;37.520;15.106;2022-12-18T10:37:26;102355.69;;;19.59;50.18
54556;BME280;57291;37.520;15.106;2022-12-18T10:40:23;102359.78;;;19.62;52.31
54556;BME280;57291;37.520;15.106;2022-12-18T10:43:12;102347.88;;;19.84;50.26
54556;BME280;57291;37.520;15.106;2022-12-18T10:45:59;102355.69;;;19.90;48.91
54556;BME280;57291;37.520;15.106;2022-12-18T10:48:27;102359.03;;;19.70;47.59
54556;BME280;57291;37.520;15.106;2022-12-18T10:50:57;102355.28;;;19.66;48.74
54556;BME280;57291;37.520;15.106;2022-12-18T10:53:44;102352.88;;;19.73;49.00
54556;BME280;57291;37.520;15.106;2022-12-18T10:56:20;102352.88;;;19.73;51.04
54556;BME280;57291;37.520;15.106;2022-12-18T10:59:05;102351.66;;;19.88;49.70
54556;BME280;57291;37.520;15.106;2022-12-18T11:01:56;102347.94;;;20.01;48.72
54556;BME280;57291;37.520;15.106;2022-12-18T11:04:34;102346.69;;;20.16;47.71
54556;BME280;57291;37.520;15.106;2022-12-18T11:07:03;102333.84;;;20.20;47.63
54556;BME280;57291;37.520;15.106;2022-12-18T11:09:35;102337.13;;;20.22;47.79
54556;BME280;57291;37.520;15.106;2022-12-18T11:12:18;102336.91;;;20.10;49.64
54556;BME280;57291;37.520;15.106;2022-12-18T11:14:52;102323.97;;;20.10;48.46
54556;BME280;57291;37.520;15.106;2022-12-18T11:19:57;102326.69;;;20.02;48.47
54556;BME280;57291;37.520;15.106;2022-12-18T11:25:03;102318.78;;;19.69;49.97
54556;BME280;57291;37.520;15.106;2022-12-18T11:27:56;102322.22;;;19.75;50.48
54556;BME280;57291;37.520;15.106;2022-12-18T11:30:33;102327.44;;;19.85;49.92
54556;BME280;57291;37.520;15.106;2022-12-18T11:33:05;102324.44;;;19.64;50.51
54556;BME280;57291;37.520;15.106;2022-12-18T11:40:42;102314.47;;;19.54;52.85
54556;BME280;57291;37.520;15.106;2022-12-18T11:48:38;102319.69;;;19.56;53.11
54556;BME280;57291;37.520;15.106;2022-12-18T11:52:04;102316.22;;;19.50;53.54
54556;BME280;57291;37.520;15.106;2022-12-18T11:54:13;102314.75;;;19.44;51.87
54556;BME280;57291;37.520;15.106;2022-12-18T12:13:45;102335.03;;;19.17;52.76
54556;BME280;57291;37.520;15.106;2022-12-18T12:16:39;102331.97;;;19.18;54.85
54556;BME280;57291;37.520;15.106;2022-12-18T12:22:03;102331.38;;;19.30;52.98
54556;BME280;57291;37.520;15.106;2022-12-18T12:30:22;102330.28;;;19.09;57.28
54556;BME280;57291;37.520;15.106;2022-12-18T12:33:13;102328.16;;;19.06;58.02
54556;BME280;57291;37.520;15.106;2022-12-18T12:36:08;102326.16;;;18.97;58.70
54556;BME280;57291;37.520;15.106;2022-12-18T12:38:46;102328.53;;;18.90;61.00
54556;BME280;57291;37.520;15.106;2022-12-18T12:41:25;102334.75;;;18.60;61.99
54556;BME280;57291;37.520;15.106;2022-12-18T12:44:24;102337.72;;;18.49;64.36
54556;BME280;57291;37.520;15.106;2022-12-18T12:46:57;102336.84;;;18.40;67.23
54556;BME280;57291;37.520;15.106;2022-12-18T12:49:29;102337.59;;;18.55;68.26
54556;BME280;57291;37.520;15.106;2022-12-18T12:52:12;102332.47;;;18.62;68.49
54556;BME280;57291;37.520;15.106;2022-12-18T12:54:41;102327.28;;;18.60;67.15
54556;BME280;57291;37.520;15.106;2022-12-18T12:59:52;102333.41;;;18.57;67.78
54556;BME280;57291;37.520;15.106;2022-12-18T13:07:53;102325.81;;;18.40;69.78
54556;BME280;57291;37.520;15.106;2022-12-18T13:10:30;102331.34;;;18.26;70.11
54556;BME280;57291;37.520;15.106;2022-12-18T13:20:41;102330.88;;;18.11;71.81
54556;BME280;57291;37.520;15.106;2022-12-18T13:34:22;102335.84;;;18.59;71.93
54556;BME280;57291;37.520;15.106;2022-12-18T13:36:56;102349.00;;;18.62;72.28
54556;BME280;57291;37.520;15.106;2022-12-18T13:39:33;102345.81;;;18.68;72.75
54556;BME280;57291;37.520;15.106;2022-12-18T13:44:39;102347.88;;;18.63;74.08
54556;BME280;57291;37.520;15.106;2022-12-18T13:47:34;102341.69;;;18.57;73.95
54556;BME280;57291;37.520;15.106;2022-12-18T13:50:24;102344.00;;;18.64;71.78
54556;BME280;57291;37.520;15.106;2022-12-18T13:53:01;102335.00;;;18.72;69.68
54556;BME280;57291;37.520;15.106;2022-12-18T13:55:29;102333.78;;;18.78;69.23
54556;BME280;57291;37.520;15.106;2022-12-18T13:58:04;102346.25;;;18.76;68.39
54556;BME280;57291;37.520;15.106;2022-12-18T14:00:31;102348.09;;;18.66;68.53
54556;BME280;57291;37.520;15.106;2022-12-18T14:02:59;102347.91;;;18.85;68.08
54556;BME280;57291;37.520;15.106;2022-12-18T14:05:33;102344.69;;;18.83;68.30
54556;BME280;57291;37.520;15.106;2022-12-18T14:08:08;102349.25;;;18.88;67.84
54556;BME280;57291;37.520;15.106;2022-12-18T14:10:41;102350.69;;;18.85;67.73
54556;BME280;57291;37.520;15.106;2022-12-18T14:13:30;102357.94;;;18.81;67.37
54556;BME280;57291;37.520;15.106;2022-12-18T14:16:00;102354.59;;;18.70;67.89
54556;BME280;57291;37.520;15.106;2022-12-18T14:18:45;102361.16;;;18.61;68.33
54556;BME280;57291;37.520;15.106;2022-12-18T14:21:35;102367.59;;;18.56;67.73
54556;BME280;57291;37.520;15.106;2022-12-18T14:24:20;102366.69;;;18.47;68.18
54556;BME280;57291;37.520;15.106;2022-12-18T14:26:49;102370.88;;;18.44;68.41
54556;BME280;57291;37.520;15.106;2022-12-18T14:29:28;102374.44;;;18.45;68.79
54556;BME280;57291;37.520;15.106;2022-12-18T14:32:12;102368.22;;;18.39;68.02
54556;BME280;57291;37.520;15.106;2022-12-18T14:34:52;102370.38;;;18.28;68.14
54556;BME280;57291;37.520;15.106;2022-12-18T14:37:25;102381.09;;;18.30;67.87
54556;BME280;57291;37.520;15.106;2022-12-18T14:39:54;102376.91;;;18.19;68.61
54556;BME280;57291;37.520;15.106;2022-12-18T14:42:22;102387.41;;;18.17;68.77
54556;BME280;57291;37.520;15.106;2022-12-18T14:44:49;102393.22;;;18.15;68.37
54556;BME280;57291;37.520;15.106;2022-12-18T14:47:36;102393.94;;;18.07;69.32
54556;BME280;57291;37.520;15.106;2022-12-18T14:50:03;102394.34;;;18.00;70.19
54556;BME280;57291;37.520;15.106;2022-12-18T14:52:39;102392.91;;;17.89;70.12
54556;BME280;57291;37.520;15.106;2022-12-18T14:55:17;102396.41;;;17.76;70.46